Time;durP1;ratioP1;P1;durP2;ratioP2;P2;SDS_P1;SDS_P2;PMS_P1;PMS_P2;Temp;Humidity;BMP_temperature;BMP_pressure;BME280_temperature;BME280_humidity;BME280_pressure;Samples;Min_cycle;Max_cycle;Signal;HPM_P1;HPM_P2
2022/09/17 00:01:07;;;;;;;;;;;;;;;29.11;78.38;97458.66;5008257;28;19926;-76
2022/09/17 00:03:44;;;;;;;;;;;;;;;29.06;78.59;97465.25;5008143;28;19922;-76
2022/09/17 00:06:41;;;;;;;;;;;;;;;29.22;77.84;97468.75;5007487;28;19936;-76
2022/09/17 00:09:16;;;;;;;;;;;;;;;28.97;78.90;97471.03;5007701;28;19925;-75
2022/09/17 00:12:10;;;;;;;;;;;;;;;29.15;79.01;97479.66;5008168;28;19921;-75
2022/09/17 00:14:46;;;;;;;;;;;;;;;29.21;78.74;97482.91;5007956;28;20115;-74
2022/09/17 00:17:34;;;;;;;;;;;;;;;29.15;78.18;97482.41;4990420;28;20019;-75
2022/09/17 00:20:17;;;;;;;;;;;;;;;29.02;78.79;97492.81;5008112;28;20518;-75
2022/09/17 00:23:13;;;;;;;;;;;;;;;28.96;79.68;97496.25;5008016;28;19953;-75
2022/09/17 00:25:50;;;;;;;;;;;;;;;29.05;78.84;97502.34;5007279;28;19926;-76
2022/09/17 00:28:48;;;;;;;;;;;;;;;28.99;79.22;97512.88;5008386;28;19921;-75
2022/09/17 00:31:43;;;;;;;;;;;;;;;28.90;79.49;97520.59;5003497;28;19929;-75
2022/09/17 00:34:37;;;;;;;;;;;;;;;29.02;79.89;97523.19;4987784;28;20545;-73
2022/09/17 00:37:13;;;;;;;;;;;;;;;29.11;79.48;97530.47;4987842;28;19971;-75
2022/09/17 00:40:07;;;;;;;;;;;;;;;29.06;79.26;97535.13;4988245;28;19930;-75
2022/09/17 00:42:44;;;;;;;;;;;;;;;28.92;79.54;97531.28;4988188;28;20043;-75
2022/09/17 00:45:38;;;;;;;;;;;;;;;28.88;79.88;97533.97;4982140;28;19936;-75
2022/09/17 00:48:14;;;;;;;;;;;;;;;29.02;79.43;97534.25;5006123;28;19932;-76
2022/09/17 00:51:10;;;;;;;;;;;;;;;29.05;79.47;97550.09;5006544;28;20309;-75
2022/09/17 00:53:46;;;;;;;;;;;;;;;29.05;79.89;97561.13;5007565;28;19921;-75
2022/09/17 00:56:35;;;;;;;;;;;;;;;29.08;79.28;97556.84;5004920;28;19925;-76
2022/09/17 00:59:26;;;;;;;;;;;;;;;29.03;79.99;97557.94;5014525;28;19928;-75
2022/09/17 01:02:07;;;;;;;;;;;;;;;28.89;79.49;97563.16;5007638;28;20346;-69
2022/09/17 01:04:57;;;;;;;;;;;;;;;29.03;79.63;97568.19;5008034;28;19956;-76
2022/09/17 01:07:47;;;;;;;;;;;;;;;28.82;80.11;97566.59;5006792;28;19921;-76
2022/09/17 01:10:41;;;;;;;;;;;;;;;28.94;80.11;97568.41;5004836;28;19929;-75
2022/09/17 01:13:30;;;;;;;;;;;;;;;28.88;79.69;97573.44;4987444;28;19926;-76
2022/09/17 01:16:22;;;;;;;;;;;;;;;29.00;79.83;97578.00;4987272;28;19922;-76
2022/09/17 01:19:21;;;;;;;;;;;;;;;29.14;79.83;97576.72;4987457;28;20023;-76
2022/09/17 01:22:18;;;;;;;;;;;;;;;29.21;78.95;97585.94;4986504;28;19953;-75
2022/09/17 01:25:16;;;;;;;;;;;;;;;29.08;78.53;97593.56;4987800;28;20612;-75
2022/09/17 01:28:10;;;;;;;;;;;;;;;29.11;79.16;97597.56;4985507;28;19980;-76
2022/09/17 01:31:22;;;;;;;;;;;;;;;29.08;78.67;97604.63;4987320;28;19925;-75
2022/09/17 01:34:36;;;;;;;;;;;;;;;29.22;78.57;97597.81;4990977;28;19932;-75
2022/09/17 01:37:15;;;;;;;;;;;;;;;29.07;78.77;97591.16;4986870;28;19925;-76
2022/09/17 01:40:31;;;;;;;;;;;;;;;29.30;78.48;97594.00;4969270;28;19922;-75
2022/09/17 01:43:10;;;;;;;;;;;;;;;29.33;78.08;97598.00;4985912;28;19926;-76
2022/09/17 01:46:06;;;;;;;;;;;;;;;29.41;78.09;97608.03;5008129;28;19925;-75
2022/09/17 01:48:52;;;;;;;;;;;;;;;29.49;77.02;97615.31;5025234;28;19921;-76
2022/09/17 01:51:45;;;;;;;;;;;;;;;29.21;76.66;97619.09;5024692;28;20400;-76
2022/09/17 01:54:37;;;;;;;;;;;;;;;29.60;76.11;97626.56;4984969;28;19929;-75
2022/09/17 01:57:34;;;;;;;;;;;;;;;29.31;76.40;97619.69;4986242;28;19964;-75
2022/09/17 02:00:24;;;;;;;;;;;;;;;29.76;75.59;97627.28;4969495;28;19965;-76
2022/09/17 02:03:19;;;;;;;;;;;;;;;29.81;75.35;97628.94;4968493;28;20020;-75
2022/09/17 02:06:13;;;;;;;;;;;;;;;30.04;74.86;97642.78;4986868;28;19921;-70
2022/09/17 02:09:30;;;;;;;;;;;;;;;29.76;74.13;97641.09;5000939;28;19953;-75
2022/09/17 02:12:23;;;;;;;;;;;;;;;29.95;74.83;97650.53;5005344;28;19925;-75
2022/09/17 02:15:22;;;;;;;;;;;;;;;29.99;74.68;97645.84;5002004;28;20032;-74
2022/09/17 02:18:10;;;;;;;;;;;;;;;30.20;74.36;97664.78;4954885;28;19929;-75
2022/09/17 02:21:18;;;;;;;;;;;;;;;30.23;75.00;97664.84;5010809;28;19929;-75
2022/09/17 02:24:17;;;;;;;;;;;;;;;29.85;74.63;97665.75;5006144;28;19926;-76
2022/09/17 02:27:05;;;;;;;;;;;;;;;30.15;74.74;97665.91;5006021;28;19960;-75
2022/09/17 02:29:49;;;;;;;;;;;;;;;30.32;74.13;97667.38;5006670;28;19935;-75
2022/09/17 02:32:44;;;;;;;;;;;;;;;30.36;74.13;97672.97;4988680;28;19936;-76
2022/09/17 02:35:19;;;;;;;;;;;;;;;30.34;73.18;97678.06;5004470;28;19955;-75
2022/09/17 02:38:07;;;;;;;;;;;;;;;30.64;73.11;97680.94;4988734;28;20018;-69
2022/09/17 02:40:54;;;;;;;;;;;;;;;30.86;73.74;97686.78;5006481;28;19921;-75
2022/09/17 02:43:59;;;;;;;;;;;;;;;30.70;72.32;97693.28;5006577;28;19980;-75
2022/09/17 02:46:34;;;;;;;;;;;;;;;30.91;72.30;97690.06;4989151;28;19964;-75
2022/09/17 02:49:48;;;;;;;;;;;;;;;30.87;72.25;97697.50;5006180;28;19935;-75
2022/09/17 02:52:26;;;;;;;;;;;;;;;31.06;71.15;97698.56;5005736;28;19944;-75
2022/09/17 02:55:23;;;;;;;;;;;;;;;31.14;70.77;97698.28;5005705;28;20012;-75
2022/09/17 02:58:31;;;;;;;;;;;;;;;30.97;70.60;97709.91;5005868;28;19956;-74
2022/09/17 03:01:17;;;;;;;;;;;;;;;31.15;70.91;97708.22;5005238;28;20462;-75
2022/09/17 03:04:07;;;;;;;;;;;;;;;31.34;71.35;97717.56;4988643;28;20048;-75
2022/09/17 03:06:51;;;;;;;;;;;;;;;31.00;71.87;97715.53;5005877;28;19922;-75
2022/09/17 03:09:40;;;;;;;;;;;;;;;31.22;69.63;97721.34;5003749;28;19925;-75
2022/09/17 03:12:29;;;;;;;;;;;;;;;31.01;70.62;97716.31;4986080;28;19930;-74
2022/09/17 03:15:11;;;;;;;;;;;;;;;31.40;70.21;97724.38;4970557;28;19937;-75
2022/09/17 03:18:06;;;;;;;;;;;;;;;31.49;69.57;97726.88;4990077;28;20637;-75
2022/09/17 03:20:42;;;;;;;;;;;;;;;31.66;69.51;97729.06;5018863;28;20038;-75
2022/09/17 03:23:31;;;;;;;;;;;;;;;31.33;69.67;97727.84;5028462;28;19944;-75
2022/09/17 03:26:21;;;;;;;;;;;;;;;31.47;68.19;97735.59;5028636;28;19925;-75
2022/09/17 03:29:09;;;;;;;;;;;;;;;31.61;68.13;97746.06;5028991;28;20048;-74
2022/09/17 03:31:59;;;;;;;;;;;;;;;31.70;67.77;97754.88;5030871;28;20356;-75
2022/09/17 03:34:47;;;;;;;;;;;;;;;31.57;66.88;97750.75;5009548;28;19920;-75
2022/09/17 03:37:30;;;;;;;;;;;;;;;31.37;68.20;97756.41;5027950;28;19979;-76
2022/09/17 03:40:24;;;;;;;;;;;;;;;31.57;67.69;97764.63;5016489;28;19921;-75
2022/09/17 03:43:01;;;;;;;;;;;;;;;31.88;67.42;97773.72;5031146;28;19925;-75
2022/09/17 03:45:49;;;;;;;;;;;;;;;31.16;68.14;97783.84;5028418;28;19921;-74
2022/09/17 03:48:35;;;;;;;;;;;;;;;31.92;66.68;97782.88;5004653;28;19940;-75
2022/09/17 03:51:25;;;;;;;;;;;;;;;32.19;66.48;97780.81;4988963;28;20523;-75
2022/09/17 03:54:09;;;;;;;;;;;;;;;32.43;65.82;97787.00;4971914;28;19979;-69
2022/09/17 03:56:58;;;;;;;;;;;;;;;32.28;66.82;97786.88;4974576;28;19955;-76
2022/09/17 03:59:41;;;;;;;;;;;;;;;32.22;67.00;97804.22;4989211;28;19957;-74
2022/09/17 04:02:36;;;;;;;;;;;;;;;31.73;66.34;97801.28;4989152;28;19944;-76
2022/09/17 04:05:12;;;;;;;;;;;;;;;31.91;65.97;97806.25;4989051;28;19925;-77
2022/09/17 04:08:00;;;;;;;;;;;;;;;32.03;65.56;97817.13;4997583;28;19931;-76
2022/09/17 04:10:52;;;;;;;;;;;;;;;32.33;65.02;97821.81;4988363;28;19926;-76
2022/09/17 04:13:35;;;;;;;;;;;;;;;32.05;64.39;97834.19;4988425;28;19925;-76
2022/09/17 04:16:24;;;;;;;;;;;;;;;31.85;63.88;97830.75;4987439;28;19932;-76
2022/09/17 04:19:14;;;;;;;;;;;;;;;32.41;63.06;97845.72;4976291;28;20304;-76
2022/09/17 04:22:06;;;;;;;;;;;;;;;32.41;62.52;97844.88;4970671;28;19936;-75
2022/09/17 04:24:54;;;;;;;;;;;;;;;32.78;63.23;97840.13;4990801;28;19984;-76
2022/09/17 04:27:42;;;;;;;;;;;;;;;32.86;61.40;97848.53;4988027;28;19922;-77
2022/09/17 04:30:24;;;;;;;;;;;;;;;32.84;61.97;97850.91;4988054;28;19926;-76
2022/09/17 04:33:19;;;;;;;;;;;;;;;32.85;61.99;97858.88;4989954;28;19929;-76
2022/09/17 04:36:18;;;;;;;;;;;;;;;32.28;61.26;97855.47;4986860;28;20282;-76
2022/09/17 04:39:18;;;;;;;;;;;;;;;32.96;61.05;97861.72;4988118;28;19933;-74
2022/09/17 04:41:54;;;;;;;;;;;;;;;32.55;59.87;97864.50;4971148;28;20220;-75
2022/09/17 04:44:42;;;;;;;;;;;;;;;32.71;60.78;97864.28;4941281;28;19929;-76
2022/09/17 04:47:32;;;;;;;;;;;;;;;32.92;61.46;97861.72;4975690;28;20376;-76
2022/09/17 04:50:16;;;;;;;;;;;;;;;32.99;64.19;97868.50;5007379;28;19929;-76
2022/09/17 04:53:05;;;;;;;;;;;;;;;33.23;60.70;97865.16;4990064;28;19921;-76
2022/09/17 04:55:53;;;;;;;;;;;;;;;32.65;62.60;97866.59;4970649;28;20025;-75
2022/09/17 04:58:35;;;;;;;;;;;;;;;33.72;60.73;97877.81;4987553;28;19928;-76
2022/09/17 05:01:25;;;;;;;;;;;;;;;33.54;59.48;97885.25;4987672;28;20345;-76
2022/09/17 05:04:14;;;;;;;;;;;;;;;32.22;59.54;97881.97;4987079;28;20017;-75
2022/09/17 05:06:55;;;;;;;;;;;;;;;31.17;62.51;97894.31;4987918;28;19953;-76
2022/09/17 05:09:45;;;;;;;;;;;;;;;31.34;62.26;97895.78;4986455;28;19949;-75
2022/09/17 05:12:33;;;;;;;;;;;;;;;31.67;61.62;97899.88;4971216;28;19925;-77
2022/09/17 05:15:22;;;;;;;;;;;;;;;31.28;61.20;97899.25;4986261;28;20005;-77
2022/09/17 05:18:04;;;;;;;;;;;;;;;31.43;60.84;97898.28;4967324;28;20032;-76
2022/09/17 05:20:53;;;;;;;;;;;;;;;31.93;61.72;97892.69;4996940;28;19925;-75
2022/09/17 05:23:38;;;;;;;;;;;;;;;32.11;58.66;97899.31;5005768;28;20260;-75
2022/09/17 05:26:27;;;;;;;;;;;;;;;31.93;61.76;97903.78;5005334;28;19925;-75
2022/09/17 05:29:09;;;;;;;;;;;;;;;32.59;60.18;97907.03;4989219;28;19929;-74
2022/09/17 05:31:58;;;;;;;;;;;;;;;31.28;61.14;97904.78;5005622;28;19925;-73
2022/09/17 05:34:40;;;;;;;;;;;;;;;31.20;60.82;97892.78;5014358;28;20344;-71
2022/09/17 05:37:29;;;;;;;;;;;;;;;32.46;59.02;97903.66;5009632;28;20003;-74
2022/09/17 05:40:11;;;;;;;;;;;;;;;32.18;57.58;97899.41;5008971;28;20117;-76
2022/09/17 05:43:10;;;;;;;;;;;;;;;32.65;57.81;97893.59;4984981;28;19926;-76
2022/09/17 05:45:53;;;;;;;;;;;;;;;32.52;57.75;97891.06;4958084;28;19921;-76
2022/09/17 05:48:43;;;;;;;;;;;;;;;31.85;58.15;97883.47;5007496;28;19921;-75
2022/09/17 05:51:26;;;;;;;;;;;;;;;32.02;59.49;97890.47;4998075;28;19926;-73
2022/09/17 05:54:16;;;;;;;;;;;;;;;32.16;58.14;97887.88;4968738;28;19945;-76
2022/09/17 05:56:57;;;;;;;;;;;;;;;32.97;57.36;97883.56;5012384;28;19925;-74
2022/09/17 05:59:46;;;;;;;;;;;;;;;33.25;57.39;97887.00;5012601;28;19987;-74
2022/09/17 06:02:27;;;;;;;;;;;;;;;33.20;57.19;97879.03;4995158;28;19991;-75
2022/09/17 06:05:16;;;;;;;;;;;;;;;33.59;56.68;97879.28;5022353;28;19995;-76
2022/09/17 06:07:57;;;;;;;;;;;;;;;33.29;55.93;97871.94;5019168;28;19925;-76
2022/09/17 06:10:46;;;;;;;;;;;;;;;33.13;57.32;97882.53;5004361;28;19929;-73
2022/09/17 06:13:29;;;;;;;;;;;;;;;33.66;55.83;97879.38;4974030;28;19925;-72
2022/09/17 06:16:23;;;;;;;;;;;;;;;33.87;57.47;97880.69;5003464;28;19921;-69
2022/09/17 06:19:05;;;;;;;;;;;;;;;33.24;57.63;97875.09;5012259;28;19922;-70
2022/09/17 06:22:14;;;;;;;;;;;;;;;33.96;56.30;97875.56;5013980;28;19987;-69
2022/09/17 06:25:18;;;;;;;;;;;;;;;33.83;57.23;97877.09;5014628;28;19921;-72
2022/09/17 06:28:33;;;;;;;;;;;;;;;33.98;56.57;97878.75;5012018;28;20206;-68
2022/09/17 06:31:43;;;;;;;;;;;;;;;34.02;55.76;97878.78;4989743;28;19922;-69
2022/09/17 06:34:46;;;;;;;;;;;;;;;33.44;56.61;97888.72;5003373;28;20540;-71
2022/09/17 06:38:01;;;;;;;;;;;;;;;33.93;55.81;97882.69;4986043;28;20043;-71
2022/09/17 06:40:56;;;;;;;;;;;;;;;33.15;57.74;97877.38;4956612;28;19932;-72
2022/09/17 06:44:05;;;;;;;;;;;;;;;32.81;60.90;97874.72;4966944;28;19991;-73
2022/09/17 06:47:10;;;;;;;;;;;;;;;33.54;59.15;97871.31;4976067;28;19921;-71
2022/09/17 06:50:20;;;;;;;;;;;;;;;33.75;57.07;97879.03;4994825;28;19922;-71
2022/09/17 06:53:24;;;;;;;;;;;;;;;33.70;58.59;97876.59;4958084;28;20489;-70
2022/09/17 06:56:34;;;;;;;;;;;;;;;33.92;57.24;97869.19;4968601;28;19925;-72
2022/09/17 06:59:36;;;;;;;;;;;;;;;33.31;58.26;97866.81;4970162;28;19922;-72
2022/09/17 07:02:59;;;;;;;;;;;;;;;33.31;58.91;97868.78;4982790;28;19921;-70
2022/09/17 07:06:04;;;;;;;;;;;;;;;33.83;59.70;97857.59;4989438;28;19933;-73
2022/09/17 07:09:12;;;;;;;;;;;;;;;34.04;58.48;97857.69;4984326;28;19921;-70
2022/09/17 07:12:23;;;;;;;;;;;;;;;33.42;58.17;97863.28;4987096;28;20193;-70
2022/09/17 07:15:28;;;;;;;;;;;;;;;33.99;60.25;97854.47;4973018;28;19928;-74
2022/09/17 07:18:39;;;;;;;;;;;;;;;34.13;56.62;97860.13;4982966;28;19921;-70
2022/09/17 07:21:48;;;;;;;;;;;;;;;34.20;56.79;97845.44;4977867;28;19921;-70
2022/09/17 07:24:57;;;;;;;;;;;;;;;34.23;57.12;97853.03;4988825;28;19980;-71
2022/09/17 07:28:06;;;;;;;;;;;;;;;33.74;57.85;97850.41;4989008;28;19922;-71
2022/09/17 07:31:10;;;;;;;;;;;;;;;34.18;56.12;97845.81;4972486;28;19937;-70
2022/09/17 07:34:18;;;;;;;;;;;;;;;34.47;55.31;97841.16;4954033;28;19961;-70
2022/09/17 07:37:22;;;;;;;;;;;;;;;34.56;55.55;97840.75;4971829;28;20064;-68
2022/09/17 07:40:30;;;;;;;;;;;;;;;34.42;56.24;97837.94;4986474;28;19932;-67
2022/09/17 07:43:41;;;;;;;;;;;;;;;34.31;54.78;97835.13;4996901;28;20023;-68
2022/09/17 07:46:42;;;;;;;;;;;;;;;34.33;55.27;97835.53;5005227;28;19925;-69
2022/09/17 07:49:51;;;;;;;;;;;;;;;34.11;56.19;97843.81;4985541;28;20421;-68
2022/09/17 07:53:01;;;;;;;;;;;;;;;34.00;55.98;97837.41;4995064;28;20598;-71
2022/09/17 07:56:10;;;;;;;;;;;;;;;34.22;55.09;97829.13;4982347;28;19969;-72
2022/09/17 07:59:20;;;;;;;;;;;;;;;34.29;55.13;97823.59;4645156;28;10000751;-71
2022/09/17 08:02:34;;;;;;;;;;;;;;;34.75;55.00;97814.53;4978014;28;20371;-70
2022/09/17 08:05:37;;;;;;;;;;;;;;;34.83;53.57;97809.75;4982594;28;20531;-71
2022/09/17 08:08:47;;;;;;;;;;;;;;;34.75;53.43;97803.38;4982985;28;19918;-73
2022/09/17 08:11:58;;;;;;;;;;;;;;;34.51;54.68;97805.72;4996813;28;19928;-72
2022/09/17 08:15:07;;;;;;;;;;;;;;;34.31;54.45;97804.50;4976181;28;20370;-75
2022/09/17 08:18:09;;;;;;;;;;;;;;;34.44;53.32;97799.34;4981611;28;19933;-74
2022/09/17 08:21:25;;;;;;;;;;;;;;;34.68;53.09;97789.44;5000727;28;19932;-73
2022/09/17 08:24:41;;;;;;;;;;;;;;;34.46;53.38;97794.97;4976951;28;19944;-73
2022/09/17 08:27:54;;;;;;;;;;;;;;;34.69;53.87;97782.69;4990911;28;20494;-71
2022/09/17 08:31:05;;;;;;;;;;;;;;;34.18;54.11;97778.22;4997019;28;19926;-70
2022/09/17 08:34:16;;;;;;;;;;;;;;;34.68;53.75;97772.72;5001141;28;19930;-72
2022/09/17 08:37:28;;;;;;;;;;;;;;;34.43;54.60;97767.91;4997644;28;19929;-70
2022/09/17 08:40:49;;;;;;;;;;;;;;;34.67;55.95;97768.34;4988433;28;19925;-69
2022/09/17 08:43:58;;;;;;;;;;;;;;;34.72;53.49;97770.75;4994309;28;19921;-71
2022/09/17 08:47:09;;;;;;;;;;;;;;;34.83;53.67;97757.56;4993598;28;20499;-74
2022/09/17 08:50:28;;;;;;;;;;;;;;;34.84;54.08;97761.97;5005581;28;19925;-73
2022/09/17 08:53:57;;;;;;;;;;;;;;;34.80;54.06;97752.81;4992520;28;19932;-72
2022/09/17 08:57:16;;;;;;;;;;;;;;;34.44;55.85;97755.56;5002933;28;19929;-70
2022/09/17 09:00:20;;;;;;;;;;;;;;;34.48;56.24;97758.34;4992118;28;20710;-72
2022/09/17 09:03:41;;;;;;;;;;;;;;;34.84;54.80;97750.03;5000814;28;19936;-68
2022/09/17 09:06:49;;;;;;;;;;;;;;;34.73;54.36;97749.25;4973140;28;19929;-69
2022/09/17 09:10:07;;;;;;;;;;;;;;;34.39;56.18;97742.03;4984037;28;19947;-67
2022/09/17 09:13:16;;;;;;;;;;;;;;;34.51;56.16;97744.44;4997072;28;19938;-71
2022/09/17 09:16:22;;;;;;;;;;;;;;;34.58;55.75;97742.84;4999098;28;19980;-68
2022/09/17 09:19:32;;;;;;;;;;;;;;;34.56;56.64;97737.66;4998502;28;20265;-69
2022/09/17 09:22:35;;;;;;;;;;;;;;;34.64;56.16;97741.25;4995477;28;20310;-72
2022/09/17 09:25:46;;;;;;;;;;;;;;;34.71;56.61;97732.91;5431604;23;19979;31
2022/09/17 09:29:04;;;;;;;;;;;;;;;34.43;56.74;97737.28;4924677;28;20017;-68
2022/09/17 09:32:26;;;;;;;;;;;;;;;34.18;56.05;97723.31;4919417;29;20484;-69
2022/09/17 09:35:44;;;;;;;;;;;;;;;34.26;57.24;97727.72;4919773;29;20247;-68
2022/09/17 09:39:12;;;;;;;;;;;;;;;34.63;57.01;97720.16;4917526;28;19931;-67
2022/09/17 09:42:35;;;;;;;;;;;;;;;34.27;55.98;97717.34;4922321;29;19927;-67
2022/09/17 09:45:44;;;;;;;;;;;;;;;34.57;55.34;97707.78;4917728;29;19927;-69
2022/09/17 09:49:13;;;;;;;;;;;;;;;34.67;56.53;97704.25;4929879;29;19975;-68
2022/09/17 09:52:40;;;;;;;;;;;;;;;34.75;57.17;97703.03;4919464;29;19930;-69
2022/09/17 09:55:54;;;;;;;;;;;;;;;34.48;55.17;97703.44;4927659;29;19937;-66
2022/09/17 09:59:05;;;;;;;;;;;;;;;34.68;55.84;97694.69;4926683;28;20004;-66
2022/09/17 10:02:11;;;;;;;;;;;;;;;34.37;56.19;97687.91;4927223;29;19974;-68
2022/09/17 10:05:20;;;;;;;;;;;;;;;34.59;55.63;97695.06;4918185;29;19965;-68
2022/09/17 10:08:33;;;;;;;;;;;;;;;34.45;55.08;97687.53;4927321;29;19926;-69
2022/09/17 10:11:34;;;;;;;;;;;;;;;34.38;54.35;97684.75;4927933;28;19930;-69
2022/09/17 10:14:47;;;;;;;;;;;;;;;34.42;54.17;97682.75;4935895;29;19926;-69
2022/09/17 10:18:10;;;;;;;;;;;;;;;34.33;53.85;97679.56;4922813;28;19930;-70
2022/09/17 10:21:26;;;;;;;;;;;;;;;34.38;53.40;97672.81;4932359;28;19957;-73
2022/09/17 10:24:30;;;;;;;;;;;;;;;34.63;53.93;97675.56;4924400;29;20016;-74
2022/09/17 10:27:44;;;;;;;;;;;;;;;34.58;54.66;97670.41;4380628;29;10000777;-74
2022/09/17 10:30:59;;;;;;;;;;;;;;;34.71;54.94;97671.59;4929835;28;19949;-76
2022/09/17 10:34:09;;;;;;;;;;;;;;;34.49;53.18;97677.19;4925668;29;20633;-74
2022/09/17 10:37:49;;;;;;;;;;;;;;;34.50;54.34;97675.97;4925020;29;20015;-72
2022/09/17 10:40:51;;;;;;;;;;;;;;;34.55;53.96;97673.97;4906286;29;19927;-73
2022/09/17 10:44:16;;;;;;;;;;;;;;;34.60;54.53;97668.00;4919125;29;20048;-72
2022/09/17 10:47:30;;;;;;;;;;;;;;;34.41;53.76;97666.41;4928939;29;19918;-74
2022/09/17 10:50:40;;;;;;;;;;;;;;;34.64;52.43;97668.78;4914041;28;19923;-71
2022/09/17 10:54:12;;;;;;;;;;;;;;;34.61;53.75;97669.59;4932887;28;20397;-72
2022/09/17 10:57:20;;;;;;;;;;;;;;;34.41;53.55;97672.00;4927580;29;19923;-70
2022/09/17 11:00:41;;;;;;;;;;;;;;;34.57;53.67;97666.00;4927173;28;20390;-71
2022/09/17 11:04:05;;;;;;;;;;;;;;;34.20;52.87;97664.44;4932678;28;20726;-75
2022/09/17 11:07:26;;;;;;;;;;;;;;;34.55;54.23;97665.59;4925293;29;20010;-70
2022/09/17 11:10:57;;;;;;;;;;;;;;;34.57;54.75;97666.00;4932868;28;19926;-73
2022/09/17 11:14:00;;;;;;;;;;;;;;;34.48;52.78;97667.22;4933898;28;19927;-70
2022/09/17 11:17:09;;;;;;;;;;;;;;;34.54;54.89;97672.41;4931714;29;19934;-71
2022/09/17 11:20:34;;;;;;;;;;;;;;;34.44;54.40;97674.00;4938024;29;19933;-70
2022/09/17 11:23:46;;;;;;;;;;;;;;;34.63;55.09;97673.56;4926262;28;20037;-72
2022/09/17 11:27:12;;;;;;;;;;;;;;;34.59;54.83;97672.78;4932031;28;20460;-73
2022/09/17 11:30:22;;;;;;;;;;;;;;;34.38;54.61;97670.81;4587513;28;9999874;-75
2022/09/17 11:33:36;;;;;;;;;;;;;;;34.24;54.67;97679.16;4934647;29;20009;-73
2022/09/17 11:37:00;;;;;;;;;;;;;;;34.25;55.92;97675.97;4936577;28;20067;-70
2022/09/17 11:40:19;;;;;;;;;;;;;;;34.27;55.17;97676.38;4588687;28;10000152;-74
2022/09/17 11:43:24;;;;;;;;;;;;;;;34.38;55.16;97678.38;4934825;28;19926;-70
2022/09/17 11:46:37;;;;;;;;;;;;;;;34.19;55.80;97680.34;4928557;29;20703;-72
2022/09/17 11:49:45;;;;;;;;;;;;;;;34.25;56.78;97678.75;4893533;29;20482;-73
2022/09/17 11:52:27;;;;;;;;;;;;;;;34.05;55.46;97680.31;4918152;29;20459;-70
2022/09/17 11:55:29;;;;;;;;;;;;;;;33.90;57.31;97676.72;4934998;28;19922;-74
2022/09/17 11:58:23;;;;;;;;;;;;;;;33.94;56.58;97680.31;4933011;29;19926;-74
2022/09/17 12:01:35;;;;;;;;;;;;;;;33.66;56.83;97687.38;4934504;28;19931;-70
2022/09/17 12:04:31;;;;;;;;;;;;;;;34.07;56.14;97687.09;4937313;29;19923;-72
2022/09/17 12:07:34;;;;;;;;;;;;;;;34.10;56.16;97691.84;4917958;29;19922;-71
2022/09/17 12:10:56;;;;;;;24.05;15.68;;;;;;;33.87;58.55;97683.06;4695096;27;9098922;-68
2022/09/17 12:14:21;;;;;;;25.77;16.42;;;;;;;33.68;57.56;97692.56;4991811;28;20131;-69
2022/09/17 12:17:12;;;;;;;26.90;16.83;;;;;;;33.60;57.67;97688.94;4994076;28;20038;-70
2022/09/17 12:20:02;;;;;;;25.27;16.70;;;;;;;33.62;59.08;97688.53;4998616;28;20125;-71
2022/09/17 12:22:54;;;;;;;28.25;16.20;;;;;;;33.52;58.64;97696.47;5000644;28;20046;-70
2022/09/17 12:26:08;;;;;;;26.00;17.88;;;;;;;33.49;58.17;97697.22;4998806;28;20157;-72
2022/09/17 12:29:19;;;;;;;29.67;17.05;;;;;;;33.45;59.08;97706.75;5000863;28;20046;-69
2022/09/17 12:32:17;;;;;;;28.27;17.83;;;;;;;33.42;59.71;97701.97;4996753;28;20058;-70
2022/09/17 12:35:18;;;;;;;;;;;;;;;33.49;58.85;97704.78;4998838;28;20046;-71
2022/09/17 12:38:39;;;;;;;28.83;18.55;;;;;;;33.34;59.48;97701.97;4996493;28;19932;-69
2022/09/17 12:42:02;;;;;;;27.25;17.90;;;;;;;33.22;57.78;97705.06;5002211;28;20086;-69
2022/09/17 12:45:28;;;;;;;32.63;17.80;;;;;;;33.23;57.87;97701.09;4652947;28;9999880;-70
2022/09/17 12:48:15;;;;;;;37.53;20.02;;;;;;;33.19;58.55;97711.41;4993094;28;20054;-70
2022/09/17 12:51:22;;;;;;;36.10;18.70;;;;;;;33.09;58.56;97709.34;4998555;28;20070;-71
2022/09/17 12:54:22;;;;;;;29.98;18.15;;;;;;;33.05;59.20;97716.84;4999007;28;20081;-72
2022/09/17 12:57:34;;;;;;;31.38;19.02;;;;;;;32.99;59.44;97716.44;4996574;28;20646;-69
2022/09/17 13:00:24;;;;;;;27.90;19.73;;;;;;;32.88;59.93;97716.34;4998677;28;20065;-71
2022/09/17 13:03:36;;;;;;;38.17;21.13;;;;;;;32.95;59.86;97730.28;4998668;28;20046;-70
2022/09/17 13:06:53;;;;;;;28.50;20.25;;;;;;;32.91;59.75;97732.25;4999893;28;20809;-70
2022/09/17 13:10:08;;;;;;;31.77;20.20;;;;;;;32.71;61.75;97730.91;4999634;28;20441;-70
2022/09/17 13:13:59;;;;;;;30.42;22.13;;;;;;;32.68;61.26;97726.16;4999918;28;20145;-71
2022/09/17 13:17:09;;;;;;;32.70;21.65;;;;;;;32.63;61.64;97732.06;4998243;28;20123;-72
2022/09/17 13:20:15;;;;;;;31.67;20.97;;;;;;;32.63;60.86;97740.38;4997406;28;20477;-69
2022/09/17 13:23:05;;;;;;;;;;;;;;;32.67;60.66;97727.31;4998481;28;20052;-69
2022/09/17 13:26:03;;;;;;;27.85;20.88;;;;;;;32.62;63.55;97727.66;4991173;28;20016;-71
2022/09/17 13:28:50;;;;;;;28.73;21.15;;;;;;;32.55;62.65;97734.75;5007368;28;20038;-68
2022/09/17 13:31:47;;;;;;;30.83;21.77;;;;;;;32.45;63.24;97737.44;4999556;28;20050;-71
2022/09/17 13:34:31;;;;;;;36.00;22.77;;;;;;;32.35;62.10;97733.38;5006454;28;20151;-73
2022/09/17 13:37:23;;;;;;;42.25;22.42;;;;;;;32.36;62.27;97737.75;4993131;28;20053;-72
2022/09/17 13:40:37;;;;;;;35.42;22.45;;;;;;;32.35;61.45;97736.97;4998724;28;20068;-67
2022/09/17 13:43:25;;;;;;;38.17;23.25;;;;;;;32.32;61.92;97740.50;5011551;28;20052;-69
2022/09/17 13:46:17;;;;;;;35.78;22.70;;;;;;;32.36;62.20;97743.31;5008412;28;20489;-69
2022/09/17 13:49:11;;;;;;;45.08;24.63;;;;;;;32.33;61.84;97755.16;5007245;28;20134;-71
2022/09/17 13:52:03;;;;;;;38.67;23.50;;;;;;;32.35;62.77;97753.63;4999338;28;20050;-73
2022/09/17 13:54:55;;;;;;;;;;;;;;;32.42;61.73;97752.88;5007372;28;20050;-70
2022/09/17 13:57:56;;;;;;;37.13;23.63;;;;;;;32.35;61.29;97763.91;4987497;28;20654;-70
2022/09/17 14:00:50;;;;;;;38.38;23.33;;;;;;;32.51;61.40;97778.34;4995656;28;20508;-71
2022/09/17 14:03:47;;;;;;;37.85;24.33;;;;;;;32.41;63.76;97776.28;4987741;28;20133;-69
2022/09/17 14:06:33;;;;;;;36.17;23.98;;;;;;;32.28;62.76;97775.75;4997869;28;20689;-69
2022/09/17 14:09:51;;;;;;;41.17;23.95;;;;;;;32.26;63.16;97785.66;5007282;28;20119;-69
2022/09/17 14:13:02;;;;;;;39.33;23.33;;;;;;;32.14;64.24;97798.63;5003196;28;20037;-72
2022/09/17 14:15:59;;;;;;;39.25;23.70;;;;;;;32.15;64.72;97802.19;5005562;28;20633;-70
2022/09/17 14:18:50;;;;;;;37.58;23.98;;;;;;;32.10;64.08;97800.56;4993179;28;20038;-70
2022/09/17 14:21:34;;;;;;;46.00;25.85;;;;;;;32.06;63.82;97801.69;5006910;28;20119;-70
2022/09/17 14:24:43;;;;;;;38.28;24.13;;;;;;;32.07;64.50;97812.41;5002945;28;20052;-71
2022/09/17 14:28:03;;;;;;;38.30;23.73;;;;;;;32.05;63.70;97817.56;4963468;28;20049;-73
2022/09/17 14:30:52;;;;;;;42.42;23.20;;;;;;;32.11;63.92;97818.81;5006427;28;20054;-71
2022/09/17 14:33:34;;;;;;;43.28;23.83;;;;;;;32.13;64.24;97835.09;4979278;28;20485;-69
2022/09/17 14:36:28;;;;;;;35.90;22.10;;;;;;;32.11;63.47;97843.78;4975025;28;20131;-70
2022/09/17 14:39:21;;;;;;;34.95;21.75;;;;;;;32.10;64.57;97846.94;4986253;28;20133;-70
2022/09/17 14:42:18;;;;;;;38.30;22.75;;;;;;;32.02;65.17;97851.59;4990803;28;20046;-70
2022/09/17 14:45:32;;;;;;;35.28;22.30;;;;;;;32.00;65.87;97854.72;5006841;28;20046;-70
2022/09/17 14:48:48;;;;;;;31.08;23.23;;;;;;;31.97;64.62;97855.50;4987975;28;20046;-71
2022/09/17 14:51:41;;;;;;;30.80;22.90;;;;;;;31.96;65.78;97864.19;4987825;28;20108;-70
2022/09/17 14:54:32;;;;;;;29.27;22.25;;;;;;;31.85;65.77;97868.78;4974021;28;20408;-70
2022/09/17 14:57:29;;;;;;;34.40;23.38;;;;;;;31.99;64.93;97874.53;5005951;28;20152;-72
2022/09/17 15:00:26;;;;;;;31.23;23.25;;;;;;;31.94;64.89;97883.19;4983681;28;20056;-72
2022/09/17 15:03:21;;;;;;;36.10;21.98;;;;;;;31.98;65.24;97895.13;4986769;28;20129;-71
2022/09/17 15:06:10;;;;;;;35.25;21.58;;;;;;;31.97;65.17;97904.66;5006541;28;20041;-75
2022/09/17 15:09:00;;;;;;;32.47;23.10;;;;;;;32.04;64.77;97910.31;5006386;28;20125;-75
2022/09/17 15:11:54;;;;;;;36.30;22.50;;;;;;;31.98;64.94;97914.56;5002106;28;20060;-72